Hemingford, Nebraska
Current Conditions -  °F | °C
As of 3:53 PM on Wednesday 26 Nov 2014 (Local Time) from KAIA Reporting Station
Overcast Overcast  
Wind Chill: -4°   Ceiling: 11000
Heat Index: -1°   Visibility: 10mi
Dew Point: -3°   Wind: 5mph
Humidity: 88%   Direction: 250°WSW
Pressure: 30.25"   Gusts: NA
Location:  42.32°N, 103.07°W
Report Text: KAIA 262253Z AUTO 25004KT 10SM FEW024 SCT085 OVC110 M01/M03 A3025 RMK AO2 SNE12 SLP274 P0000 T10111028
Loading
Personal Weather Stations






























Interactive Weather Map New forecast layout! Learn more

10-Day Weather Forecast

Advertisements
Track Severe Weather on mobile